Terminal Aerodrome Forecast
Issued by NWS Sterling, VA

Home | Current Version | Previous Version | Text Only | Print | Product List | Glossary On
Versions: 1 2 3 4 5 6 7 8 9 10 11 12 13 14 15 16 17 18 19 20 21
000
FTUS41 KLWX 230800 AAA
TAFBWI
TAF AMD
KBWI 230851Z 2309/2412 22006KT P6SM BKN080
     FM231100 22004KT P6SM SCT080
     FM232000 17005KT P6SM BKN110
     FM240100 14006KT 6SM -RA OVC090
     FM240300 13008KT 3SM RA OVC035 WS020/16035KT
     FM240500 14013KT 2SM RA OVC010 WS020/15045KT
     FM240600 14014KT 1SM RA OVC003 WS020/15050KT
     FM240800 16014KT 1SM RA OVC003
     FM241000 17012KT 2SM -RA OVC008=

USA.gov is the U.S. government's official web portal to all federal, state and local government web resources and services.